Time;durP1;ratioP1;P1;durP2;ratioP2;P2;SDS_P1;SDS_P2;PMS_P1;PMS_P2;Temp;Humidity;BMP_temperature;BMP_pressure;BME280_temperature;BME280_humidity;BME280_pressure;Samples;Min_cycle;Max_cycle;Signal;HPM_P1;HPM_P2
2024/01/10 00:00:41;;;;;;;17.23;6.37;;;;;;;-8.60;100.00;102767.66;10489070;28;20047;-75
2024/01/10 00:05:42;;;;;;;12.20;6.80;;;;;;;-8.63;100.00;102758.66;10525886;27;20036;-76
2024/01/10 00:10:42;;;;;;;12.38;6.97;;;;;;;-8.80;100.00;102756.97;10488304;28;20143;-75
2024/01/10 00:15:43;;;;;;;12.20;7.10;;;;;;;-8.75;100.00;102752.59;10516888;28;20151;-76
2024/01/10 00:20:43;;;;;;;8.20;7.17;;;;;;;-8.58;100.00;102743.41;10488074;28;20037;-76
2024/01/10 00:25:44;;;;;;;8.33;4.17;;;;;;;-8.69;100.00;102747.56;10494207;28;20123;-76
2024/01/10 00:30:47;;;;;;;14.87;8.60;;;;;;;-8.85;100.00;102748.63;10472706;28;20124;-76
2024/01/10 00:35:47;;;;;;;7.00;5.00;;;;;;;-8.91;100.00;102735.00;10487498;28;20036;-77
2024/01/10 00:40:48;;;;;;;8.00;5.93;;;;;;;-9.01;100.00;102736.78;10484084;28;20086;-77
2024/01/10 00:45:49;;;;;;;10.00;6.17;;;;;;;-9.10;100.00;102736.28;10483575;28;20041;-76
2024/01/10 00:50:49;;;;;;;9.23;5.17;;;;;;;-9.08;100.00;102721.28;10488276;28;20124;-77
2024/01/10 00:55:50;;;;;;;10.77;5.90;;;;;;;-9.06;100.00;102717.38;10560391;27;20125;-75
2024/01/10 01:00:50;;;;;;;10.10;7.17;;;;;;;-9.19;100.00;102707.88;10545247;27;20089;-76
2024/01/10 01:05:51;;;;;;;14.07;6.87;;;;;;;-9.13;100.00;102706.97;10558673;27;20115;-76
2024/01/10 01:10:51;;;;;;;7.60;6.10;;;;;;;-9.24;100.00;102703.69;10537476;27;20063;-76
2024/01/10 01:15:52;;;;;;;9.27;5.90;;;;;;;-9.25;100.00;102699.31;10501901;28;20131;-76
2024/01/10 01:20:52;;;;;;;13.93;6.10;;;;;;;-9.23;100.00;102702.09;10487562;28;20433;-76
2024/01/10 01:25:53;;;;;;;9.87;7.37;;;;;;;-9.26;100.00;102700.00;10542080;28;20036;-76
2024/01/10 01:30:53;;;;;;;10.53;5.00;;;;;;;-9.34;100.00;102697.88;10514730;28;20115;-76
2024/01/10 01:35:54;;;;;;;11.80;6.70;;;;;;;-9.45;100.00;102684.44;10542732;27;20111;-76
2024/01/10 01:40:55;;;;;;;8.93;5.30;;;;;;;-9.51;100.00;102691.09;10482715;28;20131;-78
2024/01/10 01:45:55;;;;;;;14.50;6.00;;;;;;;-9.62;100.00;102681.81;10521129;27;20047;-76
2024/01/10 01:50:58;;;;;;;10.48;6.65;;;;;;;-9.75;100.00;102676.41;10465197;28;20700;-75
2024/01/10 01:56:00;;;;;;;7.67;6.67;;;;;;;-9.83;100.00;102681.88;10514470;27;20055;-75
2024/01/10 02:01:01;;;;;;;9.13;5.63;;;;;;;-9.92;100.00;102668.72;10465176;28;20377;-76
2024/01/10 02:06:03;;;;;;;14.03;8.00;;;;;;;-10.06;100.00;102666.50;10483556;28;20032;-76
2024/01/10 02:11:04;;;;;;;9.67;4.37;;;;;;;-10.07;100.00;102658.69;10451365;28;20032;-76
2024/01/10 02:16:05;;;;;;;7.80;4.57;;;;;;;-9.95;100.00;102652.06;10468500;28;20039;-76
2024/01/10 02:21:05;;;;;;;13.23;5.78;;;;;;;-10.06;100.00;102648.78;10526432;28;20039;-75
2024/01/10 02:26:06;;;;;;;9.02;6.93;;;;;;;-10.15;100.00;102644.78;10522553;28;20392;-76
2024/01/10 02:31:07;;;;;;;8.10;6.68;;;;;;;-10.16;100.00;102632.81;10486691;28;20076;-76
2024/01/10 02:36:07;;;;;;;9.32;6.18;;;;;;;-10.06;100.00;102632.66;10515882;27;20115;-76
2024/01/10 02:41:08;;;;;;;11.10;6.32;;;;;;;-10.25;100.00;102634.81;10487919;28;20441;-75
2024/01/10 02:46:08;;;;;;;10.20;7.72;;;;;;;-10.39;100.00;102626.69;10483590;28;20413;-76
2024/01/10 02:51:09;;;;;;;12.98;5.72;;;;;;;-10.48;100.00;102626.13;10479937;28;20128;-76
2024/01/10 02:56:09;;;;;;;7.88;5.68;;;;;;;-10.36;100.00;102622.06;10512762;28;20127;-77
2024/01/10 03:01:10;;;;;;;9.98;6.88;;;;;;;-10.40;100.00;102622.31;10514459;28;20170;-76
2024/01/10 03:06:10;;;;;;;7.18;5.75;;;;;;;-10.46;100.00;102606.13;10511099;28;20130;-76
2024/01/10 03:11:11;;;;;;;9.17;5.07;;;;;;;-10.42;100.00;102601.78;10502986;28;20123;-75
2024/01/10 03:16:11;;;;;;;7.70;4.83;;;;;;;-10.01;100.00;102591.25;10494360;28;20311;-75
2024/01/10 03:21:12;;;;;;;7.73;4.97;;;;;;;-9.96;100.00;102597.03;10484073;28;20267;-76
2024/01/10 03:26:12;;;;;;;8.27;4.32;;;;;;;-9.89;100.00;102599.84;10482030;28;20484;-75
2024/01/10 03:31:13;;;;;;;9.53;6.97;;;;;;;-10.00;100.00;102594.69;10483120;28;20039;-75
2024/01/10 03:36:15;;;;;;;9.20;5.87;;;;;;;-9.97;100.00;102598.66;10494475;28;20308;-75
2024/01/10 03:41:19;;;;;;;6.93;6.23;;;;;;;-10.05;100.00;102596.53;10514645;28;20036;-76
2024/01/10 03:46:19;;;;;;;9.50;4.65;;;;;;;-9.73;100.00;102588.88;10544620;28;20424;-76
2024/01/10 03:51:20;;;;;;;6.22;3.35;;;;;;;-9.73;100.00;102588.88;10483999;28;20127;-76
2024/01/10 03:56:20;;;;;;;7.50;4.78;;;;;;;-9.47;100.00;102574.25;10500587;28;20182;-75
2024/01/10 04:01:24;;;;;;;10.75;6.05;;;;;;;-9.35;100.00;102576.81;10484199;28;20071;-76
2024/01/10 04:06:24;;;;;;;9.77;4.80;;;;;;;-9.65;100.00;102587.53;10525683;27;20043;-76
2024/01/10 04:11:25;;;;;;;6.30;3.85;;;;;;;-9.78;100.00;102581.25;10549431;27;20436;-76
2024/01/10 04:16:27;;;;;;;14.40;6.97;;;;;;;-9.83;100.00;102580.53;10513703;27;20053;-75
2024/01/10 04:21:27;;;;;;;9.15;6.45;;;;;;;-9.98;100.00;102583.19;10486592;28;20032;-76
2024/01/10 04:26:28;;;;;;;11.40;6.13;;;;;;;-9.95;100.00;102576.06;10514259;27;20123;-76
2024/01/10 04:31:28;;;;;;;11.48;5.68;;;;;;;-9.94;100.00;102572.84;10526827;27;20123;-75
2024/01/10 04:36:29;;;;;;;5.80;4.20;;;;;;;-10.03;100.00;102574.88;10529883;27;20525;-75
2024/01/10 04:41:30;;;;;;;7.50;4.78;;;;;;;-10.18;100.00;102574.31;10489264;27;20282;-76
2024/01/10 04:46:30;;;;;;;10.27;6.20;;;;;;;-10.33;100.00;102565.22;10511039;28;20155;-76
2024/01/10 04:51:31;;;;;;;11.85;6.50;;;;;;;-10.32;100.00;102563.63;10525291;27;20543;-76
2024/01/10 04:56:31;;;;;;;17.98;8.63;;;;;;;-10.41;100.00;102560.59;10511022;28;20124;-75
2024/01/10 05:01:32;;;;;;;5.83;5.23;;;;;;;-10.24;100.00;102569.88;10493794;28;20063;-75
2024/01/10 05:06:32;;;;;;;11.33;3.93;;;;;;;-9.78;100.00;102554.28;10489019;28;20305;-77
2024/01/10 05:11:35;;;;;;;7.70;4.97;;;;;;;-9.54;100.00;102555.31;10434942;28;20263;-75
2024/01/10 05:16:36;;;;;;;8.97;6.23;;;;;;;-9.35;100.00;102549.88;10446993;28;20933;-76
2024/01/10 05:21:36;;;;;;;8.37;6.07;;;;;;;-9.25;100.00;102542.03;10444276;28;20036;-76
2024/01/10 05:26:37;;;;;;;8.40;6.03;;;;;;;-9.05;100.00;102551.78;10460056;28;20123;-76
2024/01/10 05:31:38;;;;;;;10.65;6.38;;;;;;;-8.89;100.00;102562.66;10476766;28;20067;-75
2024/01/10 05:36:42;;;;;;;12.35;5.50;;;;;;;-9.00;100.00;102579.72;10473511;28;20040;-76
2024/01/10 05:42:06;;;;;;;9.70;6.13;;;;;;;-9.30;100.00;102575.91;10470556;28;20043;-77
2024/01/10 05:47:08;;;;;;;11.30;7.60;;;;;;;-9.40;100.00;102577.72;10535731;28;20055;-77
2024/01/10 05:52:08;;;;;;;14.53;8.73;;;;;;;-9.47;100.00;102576.78;10567680;27;20123;-77
2024/01/10 05:57:09;;;;;;;13.73;8.10;;;;;;;-9.61;100.00;102581.31;10514863;28;20449;-76
2024/01/10 06:02:09;;;;;;;19.50;8.63;;;;;;;-9.40;100.00;102573.59;10547483;28;20031;-77
2024/01/10 06:07:10;;;;;;;16.53;6.80;;;;;;;-9.41;100.00;102583.47;10566503;28;20337;-77
2024/01/10 06:12:10;;;;;;;9.70;5.17;;;;;;;-9.51;100.00;102587.13;10513772;28;20122;-76
2024/01/10 06:17:11;;;;;;;10.27;6.57;;;;;;;-9.41;100.00;102588.56;10488389;28;20043;-77
2024/01/10 06:22:11;;;;;;;8.50;5.07;;;;;;;-9.34;100.00;102587.22;10484800;28;20269;-77
2024/01/10 06:27:12;;;;;;;9.17;5.07;;;;;;;-9.22;100.00;102579.66;10494391;28;20091;-77
2024/01/10 06:32:14;;;;;;;11.83;7.93;;;;;;;-9.20;100.00;102593.50;10503951;28;20048;-77
2024/01/10 06:37:14;;;;;;;12.82;6.25;;;;;;;-9.17;100.00;102594.88;10523091;27;20052;-76
2024/01/10 06:42:15;;;;;;;17.80;8.63;;;;;;;-9.00;100.00;102586.38;10504324;27;20168;-76
2024/01/10 06:47:16;;;;;;;11.50;5.82;;;;;;;-8.91;100.00;102579.28;10482796;27;20130;-78
2024/01/10 06:52:17;;;;;;;8.88;7.97;;;;;;;-8.64;100.00;102579.97;10506687;27;20043;-77
2024/01/10 06:57:17;;;;;;;9.27;7.20;;;;;;;-8.73;100.00;102574.44;10513248;27;20044;-77
2024/01/10 07:02:18;;;;;;;12.00;7.65;;;;;;;-8.66;100.00;102578.81;10501805;28;20447;-78
2024/01/10 07:07:18;;;;;;;8.63;6.60;;;;;;;-8.61;100.00;102570.28;10518336;27;20047;-77
2024/01/10 07:12:19;;;;;;;8.33;5.83;;;;;;;-8.62;100.00;102568.44;10509494;27;20317;-77
2024/01/10 07:17:22;;;;;;;14.67;8.23;;;;;;;-8.59;100.00;102576.53;10522306;27;20470;-77
2024/01/10 07:22:23;;;;;;;14.82;7.03;;;;;;;-8.54;100.00;102577.22;10518700;27;20040;-77
2024/01/10 07:27:24;;;;;;;17.27;6.57;;;;;;;-8.51;100.00;102584.38;10503268;27;20043;-77
2024/01/10 07:32:25;;;;;;;9.70;7.30;;;;;;;-8.39;100.00;102591.25;10506218;28;20546;-78
2024/01/10 07:37:25;;;;;;;12.90;7.85;;;;;;;-8.43;100.00;102589.91;10516064;27;20132;-77
2024/01/10 07:42:26;;;;;;;18.20;7.87;;;;;;;-8.40;100.00;102599.56;10506969;28;20065;-76
2024/01/10 07:47:26;;;;;;;9.43;6.63;;;;;;;-8.46;100.00;102602.13;10529223;27;20122;-78
2024/01/10 07:52:27;;;;;;;14.07;7.87;;;;;;;-8.30;100.00;102602.81;10527413;27;20287;-76
2024/01/10 07:57:27;;;;;;;11.30;5.63;;;;;;;-8.46;100.00;102608.81;10507901;27;20582;-77
2024/01/10 08:02:28;;;;;;;11.67;6.80;;;;;;;-8.54;100.00;102609.31;10511103;27;20143;-75
2024/01/10 08:07:28;;;;;;;16.00;8.37;;;;;;;-8.47;100.00;102609.50;10492960;28;20523;-77
2024/01/10 08:12:29;;;;;;;20.60;10.60;;;;;;;-8.43;100.00;102609.28;10521105;28;20068;-77
2024/01/10 08:17:29;;;;;;;12.93;8.40;;;;;;;-8.29;100.00;102619.00;10521306;28;20134;-77
2024/01/10 08:22:30;;;;;;;14.20;6.33;;;;;;;-8.24;100.00;102624.75;10508116;28;20052;-78
2024/01/10 08:27:34;;;;;;;13.83;7.70;;;;;;;-8.24;100.00;102627.28;10485492;28;20376;-76
2024/01/10 08:32:36;;;;;;;10.68;7.45;;;;;;;-8.12;100.00;102629.13;10527156;28;20036;-76
2024/01/10 08:37:37;;;;;;;11.97;7.43;;;;;;;-8.01;100.00;102635.84;10526107;28;20039;-77
2024/01/10 08:42:38;;;;;;;18.08;8.18;;;;;;;-7.89;100.00;102637.69;10524752;28;20048;-75
2024/01/10 08:47:39;;;;;;;17.30;9.27;;;;;;;-7.78;100.00;102651.97;10526108;28;20047;-77
2024/01/10 08:52:39;;;;;;;10.07;8.23;;;;;;;-7.68;100.00;102659.38;10526791;28;20101;-75
2024/01/10 08:57:40;;;;;;;17.10;8.67;;;;;;;-7.57;100.00;102653.31;10527109;28;20040;-75
2024/01/10 09:02:40;;;;;;;10.43;7.10;;;;;;;-7.46;100.00;102670.19;10526709;28;20039;-75
2024/01/10 09:07:42;;;;;;;19.73;9.63;;;;;;;-7.37;100.00;102672.47;10527659;28;20115;-75
2024/01/10 09:12:45;;;;;;;;;;;;;;;-7.35;100.00;102670.16;10525445;28;20040;-74
2024/01/10 09:17:46;;;;;;;11.88;8.52;;;;;;;-7.27;100.00;102682.41;10524745;28;19924;-75
2024/01/10 09:22:46;;;;;;;13.50;10.50;;;;;;;-7.02;100.00;102672.34;10525588;28;20048;-75
2024/01/10 09:27:47;;;;;;;11.50;8.23;;;;;;;-6.75;100.00;102679.63;10523989;28;20059;-76
2024/01/10 09:32:47;;;;;;;13.30;10.67;;;;;;;-6.59;100.00;102673.50;10526885;28;20079;-77
2024/01/10 09:37:49;;;;;;;20.63;11.97;;;;;;;-6.42;100.00;102682.69;10525148;28;20123;-76
2024/01/10 09:42:54;;;;;;;23.00;9.57;;;;;;;-6.28;100.00;102694.88;10523688;28;20119;-75
2024/01/10 09:47:56;;;;;;;21.02;9.65;;;;;;;-6.14;100.00;102686.66;10525240;28;20047;-74
2024/01/10 09:53:06;;;;;;;14.05;9.35;;;;;;;-5.93;100.00;102687.13;10522949;28;20053;-75
2024/01/10 09:58:08;;;;;;;12.25;8.45;;;;;;;-5.76;100.00;102687.00;10473245;28;20103;-75
2024/01/10 10:03:12;;;;;;;14.88;8.18;;;;;;;-5.55;100.00;102685.66;10463109;28;20048;-76
2024/01/10 10:08:15;;;;;;;20.25;10.32;;;;;;;-5.45;100.00;102695.50;10504159;28;20400;-76
2024/01/10 10:13:28;;;;;;;16.75;10.18;;;;;;;-5.31;100.00;102692.34;10503155;27;20083;-76
2024/01/10 10:18:29;;;;;;;20.83;11.00;;;;;;;-5.10;100.00;102699.53;10525031;28;20048;-76
2024/01/10 10:23:30;;;;;;;21.60;10.35;;;;;;;-4.77;100.00;102699.81;10501602;27;20037;-76
2024/01/10 10:28:31;;;;;;;18.73;11.50;;;;;;;-4.39;100.00;102698.16;10505391;27;20492;-76
2024/01/10 10:33:32;;;;;;;13.30;9.98;;;;;;;-4.05;100.00;102689.03;10501705;27;20404;-77
2024/01/10 10:38:33;;;;;;;17.27;10.30;;;;;;;-3.77;100.00;102693.69;10498212;27;20117;-76
2024/01/10 10:43:35;;;;;;;19.80;10.90;;;;;;;-3.06;100.00;102683.28;10518139;27;20116;-76
2024/01/10 10:48:36;;;;;;;;;;;;;;;-2.27;100.00;102694.38;10528729;27;20059;-76
2024/01/10 10:53:38;;;;;;;21.42;12.52;;;;;;;-1.84;100.00;102680.94;10520974;27;19926;-75
2024/01/10 10:58:40;;;;;;;41.35;11.77;;;;;;;-1.02;100.00;102684.13;10498390;28;20040;-76
2024/01/10 11:03:42;;;;;;;26.27;11.80;;;;;;;1.01;100.00;102680.72;10503566;28;20407;-78
2024/01/10 11:08:46;;;;;;;19.30;12.85;;;;;;;1.53;100.00;102671.00;10520524;28;20032;-77
2024/01/10 11:14:08;;;;;;;20.42;11.40;;;;;;;0.35;100.00;102684.25;10502330;28;20036;-78
2024/01/10 11:19:16;;;;;;;;;;;;;;;-0.96;100.00;102678.09;10528995;27;20449;-77
2024/01/10 11:24:17;;;;;;;25.35;12.98;;;;;;;-1.87;100.00;102684.78;10529581;28;20359;-78
2024/01/10 11:29:17;;;;;;;17.47;9.73;;;;;;;-1.67;100.00;102672.81;10506034;28;20096;-78
2024/01/10 11:34:22;;;;;;;20.77;10.40;;;;;;;-1.27;100.00;102666.59;10528503;28;20032;-76
2024/01/10 11:39:22;;;;;;;16.15;9.88;;;;;;;-1.45;100.00;102660.09;10470647;28;20070;-77
2024/01/10 11:44:26;;;;;;;17.07;10.70;;;;;;;-0.71;100.00;102662.19;10484516;28;20496;-76
2024/01/10 11:49:27;;;;;;;17.08;10.57;;;;;;;-1.10;100.00;102657.47;10467957;28;20050;-77
2024/01/10 11:54:44;;;;;;;14.00;10.90;;;;;;;-1.65;100.00;102657.59;10512023;28;20505;-77
2024/01/10 11:59:45;;;;;;;15.65;9.10;;;;;;;-1.70;100.00;102644.19;10509426;27;20054;-77
2024/01/10 12:04:46;;;;;;;22.30;10.93;;;;;;;-1.43;100.00;102640.66;10530317;27;20036;-77
2024/01/10 12:09:47;;;;;;;31.40;13.53;;;;;;;-1.84;100.00;102644.09;10528844;27;20054;-77
2024/01/10 12:14:47;;;;;;;16.87;9.70;;;;;;;-1.64;100.00;102641.44;10527135;27;20488;-77
2024/01/10 12:19:48;;;;;;;25.90;11.73;;;;;;;-1.06;100.00;102631.41;10521577;28;20490;-76
2024/01/10 12:24:49;;;;;;;19.50;12.00;;;;;;;-0.54;100.00;102630.78;10524784;27;20119;-75
2024/01/10 12:29:52;;;;;;;17.53;9.87;;;;;;;-0.75;100.00;102642.88;10504835;27;20436;-76
2024/01/10 12:35:03;;;;;;;19.33;12.00;;;;;;;-0.83;100.00;102626.53;10516448;27;20112;-77
2024/01/10 12:40:04;;;;;;;17.30;11.15;;;;;;;-0.27;100.00;102619.41;10517723;27;20398;-78
2024/01/10 12:45:05;;;;;;;23.70;13.07;;;;;;;-0.94;100.00;102622.63;10483469;28;20044;-77
2024/01/10 12:50:07;;;;;;;16.23;10.70;;;;;;;-1.01;100.00;102620.06;10471384;28;20024;-77
2024/01/10 12:55:08;;;;;;;15.43;10.05;;;;;;;-1.24;100.00;102622.38;10523082;28;20548;-77
2024/01/10 13:00:09;;;;;;;18.50;9.67;;;;;;;-1.45;100.00;102619.00;10524766;27;20036;-78
2024/01/10 13:05:11;;;;;;;18.15;11.02;;;;;;;-1.04;100.00;102619.69;10528474;28;20128;-78
2024/01/10 13:10:12;;;;;;;20.13;9.73;;;;;;;-0.46;100.00;102617.19;10510944;27;20036;-77
2024/01/10 13:15:12;;;;;;;18.30;10.33;;;;;;;-0.83;100.00;102617.88;10533149;27;20067;-77
2024/01/10 13:20:13;;;;;;;19.03;11.60;;;;;;;-1.37;100.00;102627.63;10516289;28;20176;-78
2024/01/10 13:25:15;;;;;;;24.13;12.93;;;;;;;-1.66;100.00;102622.38;10517189;27;20487;-78
2024/01/10 13:30:15;;;;;;;24.17;9.90;;;;;;;-1.83;100.00;102623.75;10508218;27;20058;-78
2024/01/10 13:35:16;;;;;;;15.77;9.93;;;;;;;-2.26;100.00;102621.81;10501758;28;20115;-78
2024/01/10 13:40:17;;;;;;;17.10;11.07;;;;;;;-2.64;100.00;102629.72;10538298;28;20542;-79
2024/01/10 13:45:17;;;;;;;14.43;9.53;;;;;;;-2.83;100.00;102633.41;10516833;27;20043;-79
2024/01/10 13:50:18;;;;;;;22.07;10.07;;;;;;;-2.91;100.00;102627.97;10496764;27;20127;-80
2024/01/10 13:55:20;;;;;;;18.40;10.57;;;;;;;-2.95;100.00;102627.59;10519548;27;20491;-78
2024/01/10 14:00:21;;;;;;;25.42;11.98;;;;;;;-3.04;100.00;102628.94;10510483;27;20039;-79
2024/01/10 14:05:21;;;;;;;17.50;9.23;;;;;;;-3.09;100.00;102640.22;10463620;28;21572;-80
2024/01/10 14:10:22;;;;;;;17.43;9.77;;;;;;;-3.12;100.00;102638.22;10444220;28;20032;-79
2024/01/10 14:15:22;;;;;;;19.40;10.63;;;;;;;-3.04;100.00;102641.75;10443801;28;20567;-79
2024/01/10 14:20:23;;;;;;;16.63;10.97;;;;;;;-2.95;100.00;102630.16;10495014;27;20028;-82
2024/01/10 14:25:24;;;;;;;15.45;11.35;;;;;;;-2.98;100.00;102640.00;10475105;28;20063;-80
2024/01/10 14:30:25;;;;;;;20.40;9.57;;;;;;;-3.04;100.00;102635.72;10511711;27;20055;-80
2024/01/10 14:35:25;;;;;;;14.13;9.33;;;;;;;-3.15;100.00;102632.69;10532771;27;20040;-81
2024/01/10 14:40:26;;;;;;;14.40;10.50;;;;;;;-3.17;100.00;102636.69;10510284;27;20047;-80
2024/01/10 14:45:27;;;;;;;17.97;9.77;;;;;;;-3.02;100.00;102639.41;10501059;27;20028;-80
2024/01/10 14:50:28;;;;;;;17.98;10.88;;;;;;;-2.92;100.00;102637.31;10500888;27;20143;-81
2024/01/10 14:55:28;;;;;;;14.40;9.17;;;;;;;-2.81;100.00;102631.97;10500227;27;20050;-80
2024/01/10 15:00:29;;;;;;;17.97;8.30;;;;;;;-2.64;100.00;102630.66;10521792;28;20531;-80
2024/01/10 15:05:30;;;;;;;18.40;10.57;;;;;;;-2.67;100.00;102636.28;10521889;28;20147;-80
2024/01/10 15:10:30;;;;;;;13.63;11.23;;;;;;;-2.70;100.00;102645.25;10520738;27;20047;-80
2024/01/10 15:15:32;;;;;;;15.03;9.13;;;;;;;-2.73;100.00;102643.19;10520057;27;20471;-80
2024/01/10 15:20:32;;;;;;;;;;;;;;;-2.75;100.00;102647.19;10520148;27;20121;-79
2024/01/10 15:25:35;;;;;;;27.23;13.00;;;;;;;-2.84;100.00;102652.06;10521613;28;20382;-79
2024/01/10 15:30:36;;;;;;;29.30;13.60;;;;;;;-3.01;100.00;102651.50;10519388;28;20040;-79
2024/01/10 15:35:37;;;;;;;23.70;14.53;;;;;;;-3.16;100.00;102650.41;10521289;28;20073;-80
2024/01/10 15:40:37;;;;;;;22.43;12.50;;;;;;;-3.34;100.00;102659.16;10520525;28;20146;-77
2024/01/10 15:45:38;;;;;;;21.43;13.67;;;;;;;-3.55;100.00;102669.31;10520614;28;20070;-79
2024/01/10 15:50:41;;;;;;;20.45;13.18;;;;;;;-3.66;100.00;102671.16;10519198;27;20060;-79
2024/01/10 15:55:42;;;;;;;21.60;12.17;;;;;;;-3.65;100.00;102680.69;10468741;28;20063;-81
2024/01/10 16:00:43;;;;;;;24.47;13.57;;;;;;;-3.75;100.00;102675.94;10456786;28;20103;-80
2024/01/10 16:05:43;;;;;;;18.20;14.00;;;;;;;-3.85;100.00;102677.28;10497721;28;20044;-81
2024/01/10 16:10:44;;;;;;;23.37;10.63;;;;;;;-3.95;100.00;102686.09;10499606;27;20165;-80
2024/01/10 16:15:44;;;;;;;23.67;14.53;;;;;;;-3.98;100.00;102681.47;10516008;27;20126;-82
2024/01/10 16:20:45;;;;;;;17.50;11.23;;;;;;;-4.05;100.00;102687.41;10526756;27;20052;-79
2024/01/10 16:25:45;;;;;;;21.27;12.40;;;;;;;-4.22;100.00;102689.31;10521791;27;20169;-78
2024/01/10 16:30:46;;;;;;;22.00;15.43;;;;;;;-4.44;100.00;102687.28;10508237;27;20503;-78
2024/01/10 16:35:46;;;;;;;35.37;17.10;;;;;;;-4.66;100.00;102679.94;10511094;27;20097;-77
2024/01/10 16:40:47;;;;;;;23.83;15.23;;;;;;;-4.78;100.00;102684.28;10523776;27;20032;-78
2024/01/10 16:45:47;;;;;;;20.23;11.93;;;;;;;-4.93;100.00;102683.06;10526904;27;20036;-78
2024/01/10 16:50:48;;;;;;;17.67;12.30;;;;;;;-5.20;100.00;102687.13;10520674;27;20459;-78
2024/01/10 16:55:49;;;;;;;32.67;15.10;;;;;;;-5.29;100.00;102677.25;10524345;27;20051;-78
2024/01/10 17:00:50;;;;;;;23.17;13.43;;;;;;;-5.52;100.00;102675.88;10530331;27;20063;-78
2024/01/10 17:05:50;;;;;;;35.33;14.90;;;;;;;-5.71;100.00;102674.88;10520616;27;20058;-78
2024/01/10 17:10:51;;;;;;;26.33;12.87;;;;;;;-5.85;100.00;102675.50;10520858;27;20571;-78
2024/01/10 17:15:51;;;;;;;28.03;14.93;;;;;;;-5.96;100.00;102663.75;10523951;27;20046;-78
2024/01/10 17:20:52;;;;;;;21.20;14.97;;;;;;;-6.08;100.00;102656.94;10465347;28;20522;-78
2024/01/10 17:25:52;;;;;;;24.97;14.53;;;;;;;-6.29;100.00;102652.25;10499118;28;20127;-77
2024/01/10 17:30:53;;;;;;;26.57;14.80;;;;;;;-6.45;100.00;102659.31;10509245;27;20108;-78
2024/01/10 17:35:53;;;;;;;21.80;13.53;;;;;;;-6.54;100.00;102659.81;10508773;27;20074;-78
2024/01/10 17:40:54;;;;;;;21.20;15.03;;;;;;;-6.65;100.00;102671.03;10505874;28;20127;-78
2024/01/10 17:45:54;;;;;;;36.80;19.17;;;;;;;-6.74;100.00;102662.03;10505340;27;20119;-77
2024/01/10 17:50:55;;;;;;;25.97;16.53;;;;;;;-6.84;100.00;102657.22;10507219;27;20274;-77
2024/01/10 17:55:55;;;;;;;25.97;15.53;;;;;;;-6.98;100.00;102657.75;10488421;27;20085;-78
2024/01/10 18:00:56;;;;;;;17.30;12.03;;;;;;;-7.11;100.00;102659.22;10508389;27;20028;-77
2024/01/10 18:05:56;;;;;;;28.90;15.07;;;;;;;-7.15;100.00;102651.81;10520914;27;20042;-77
2024/01/10 18:10:57;;;;;;;30.27;15.00;;;;;;;-7.23;100.00;102666.88;10495149;28;20510;-78
2024/01/10 18:15:58;;;;;;;21.90;17.20;;;;;;;-7.28;100.00;102664.34;10521987;27;20127;-78
2024/01/10 18:21:01;;;;;;;32.80;18.48;;;;;;;-7.32;100.00;102668.06;10520152;28;20112;-77
2024/01/10 18:26:01;;;;;;;31.33;18.35;;;;;;;-7.33;100.00;102672.91;10510151;28;20495;-77
2024/01/10 18:31:03;;;;;;;34.80;18.57;;;;;;;-7.29;100.00;102665.97;10521635;28;20107;-77
2024/01/10 18:36:04;;;;;;;23.83;17.00;;;;;;;-7.36;100.00;102663.22;10523270;28;20502;-77
2024/01/10 18:41:05;;;;;;;24.30;15.50;;;;;;;-7.36;100.00;102670.88;10519632;28;20070;-77
2024/01/10 18:46:06;;;;;;;21.58;14.88;;;;;;;-7.45;100.00;102669.50;10520908;28;20113;-77
2024/01/10 18:51:07;;;;;;;24.87;15.63;;;;;;;-7.53;100.00;102675.97;10521703;28;20047;-77
2024/01/10 18:56:08;;;;;;;20.90;15.73;;;;;;;-7.57;100.00;102688.94;10522201;28;20173;-77
2024/01/10 19:01:08;;;;;;;24.65;16.88;;;;;;;-7.62;100.00;102689.88;10520745;28;20039;-77
2024/01/10 19:06:09;;;;;;;23.50;16.13;;;;;;;-7.70;100.00;102684.56;10502510;28;20131;-77
2024/01/10 19:11:10;;;;;;;26.00;15.33;;;;;;;-7.73;100.00;102673.94;10496474;27;20134;-78
2024/01/10 19:16:10;;;;;;;43.78;16.55;;;;;;;-7.71;100.00;102676.72;10518873;27;20091;-78
2024/01/10 19:21:11;;;;;;;27.17;16.70;;;;;;;-7.75;100.00;102672.78;10520967;28;20032;-78
2024/01/10 19:26:22;;;;;;;48.67;19.57;;;;;;;-7.73;100.00;102668.84;10521253;28;20169;-78
2024/01/10 19:31:22;;;;;;;29.15;14.75;;;;;;;-7.71;100.00;102675.09;10462840;28;20045;-77
2024/01/10 19:36:23;;;;;;;33.47;14.60;;;;;;;-7.83;100.00;102676.72;10472559;28;20051;-77
2024/01/10 19:41:27;;;;;;;31.85;16.10;;;;;;;-7.93;100.00;102676.03;10502937;27;20119;-77
2024/01/10 19:46:28;;;;;;;29.20;17.05;;;;;;;-7.94;100.00;102670.72;10464353;28;20671;-77
2024/01/10 19:51:28;;;;;;;28.43;17.30;;;;;;;-8.00;100.00;102676.72;10484558;28;20139;-77
2024/01/10 19:56:31;;;;;;;33.23;16.57;;;;;;;-8.06;100.00;102668.19;10508413;28;20120;-77
2024/01/10 20:01:32;;;;;;;26.75;17.48;;;;;;;-8.01;100.00;102666.34;10518475;27;20049;-77
2024/01/10 20:06:32;;;;;;;24.23;13.33;;;;;;;-8.08;100.00;102674.66;10514246;27;20483;-76
2024/01/10 20:11:33;;;;;;;35.30;18.37;;;;;;;-8.09;100.00;102665.19;10524610;27;20032;-77
2024/01/10 20:16:33;;;;;;;33.13;16.80;;;;;;;-8.11;100.00;102671.66;10511886;27;20438;-77
2024/01/10 20:21:35;;;;;;;25.90;18.10;;;;;;;-8.04;100.00;102676.06;10525134;27;20067;-77
2024/01/10 20:26:35;;;;;;;35.45;19.50;;;;;;;-8.10;100.00;102670.94;10509301;27;20045;-78
2024/01/10 20:31:36;;;;;;;28.13;14.75;;;;;;;-8.06;100.00;102669.81;10498524;28;20048;-78
2024/01/10 20:36:37;;;;;;;27.77;17.93;;;;;;;-8.11;100.00;102669.09;10464393;28;21179;-77
2024/01/10 20:41:37;;;;;;;20.90;18.17;;;;;;;-8.15;100.00;102661.72;10476256;28;20036;-78
2024/01/10 20:46:37;;;;;;;23.50;14.97;;;;;;;-8.25;100.00;102661.94;10512133;27;20075;-78
2024/01/10 20:51:38;;;;;;;21.87;13.60;;;;;;;-8.32;100.00;102665.16;10472156;28;20056;-77
2024/01/10 20:56:40;;;;;;;29.33;19.50;;;;;;;-8.28;100.00;102662.41;10518106;27;20142;-77
2024/01/10 21:01:41;;;;;;;30.67;17.27;;;;;;;-8.39;100.00;102667.47;10523963;28;20063;-77
2024/01/10 21:06:41;;;;;;;24.55;15.32;;;;;;;-8.41;100.00;102679.00;10546281;27;20043;-77
2024/01/10 21:11:42;;;;;;;29.47;17.97;;;;;;;-8.39;100.00;102686.88;10528649;28;20130;-77
2024/01/10 21:16:45;;;;;;;32.47;16.00;;;;;;;-8.49;100.00;102685.50;10542173;28;20047;-77
2024/01/10 21:21:48;;;;;;;25.58;16.23;;;;;;;-8.61;100.00;102683.63;10526108;28;20490;-77
2024/01/10 21:26:48;;;;;;;32.33;18.33;;;;;;;-8.67;100.00;102680.16;10525739;27;20036;-78
2024/01/10 21:31:49;;;;;;;20.10;17.93;;;;;;;-8.73;100.00;102687.75;10531622;27;20491;-78
2024/01/10 21:36:49;;;;;;;24.30;16.03;;;;;;;-8.83;100.00;102694.63;10528894;27;20043;-78
2024/01/10 21:41:50;;;;;;;23.33;16.57;;;;;;;-8.88;100.00;102699.94;10523556;28;20573;-78
2024/01/10 21:46:51;;;;;;;27.48;16.48;;;;;;;-8.87;100.00;102698.34;10490451;27;20051;-77
2024/01/10 21:51:51;;;;;;;26.30;18.05;;;;;;;-8.87;100.00;102709.38;10503709;27;20131;-78
2024/01/10 21:56:52;;;;;;;24.40;16.60;;;;;;;-8.85;100.00;102707.09;10504629;27;20523;-77
2024/01/10 22:01:53;;;;;;;23.25;17.60;;;;;;;-8.82;100.00;102716.78;10535998;27;20088;-77
2024/01/10 22:06:53;;;;;;;20.87;12.83;;;;;;;-8.67;100.00;102715.72;10520120;27;20476;-77
2024/01/10 22:11:54;;;;;;;21.67;15.40;;;;;;;-8.56;100.00;102728.44;10523464;27;20040;-78
2024/01/10 22:16:54;;;;;;;19.07;15.53;;;;;;;-8.67;100.00;102720.78;10506744;27;20130;-78
2024/01/10 22:21:55;;;;;;;37.70;16.30;;;;;;;-8.80;100.00;102733.19;10523482;27;20278;-77
2024/01/10 22:26:55;;;;;;;27.27;19.40;;;;;;;-8.74;100.00;102727.47;10522168;27;20127;-78